sensor_id;sensor_type;location;lat;lon;timestamp;temperature;humidity
64855;DHT22;51321;50.428;8.378;2022-12-19T00:01:08;-2.30;99.90
64855;DHT22;51321;50.428;8.378;2022-12-19T00:03:37;-2.30;99.90
64855;DHT22;51321;50.428;8.378;2022-12-19T00:06:01;-2.20;99.90
64855;DHT22;51321;50.428;8.378;2022-12-19T00:08:24;-2.30;99.90
64855;DHT22;51321;50.428;8.378;2022-12-19T00:10:54;-2.20;99.90
64855;DHT22;51321;50.428;8.378;2022-12-19T00:13:17;-2.20;99.90
64855;DHT22;51321;50.428;8.378;2022-12-19T00:15:41;-2.20;99.90
64855;DHT22;51321;50.428;8.378;2022-12-19T00:18:05;-2.20;99.90
64855;DHT22;51321;50.428;8.378;2022-12-19T00:20:29;-2.20;99.90
64855;DHT22;51321;50.428;8.378;2022-12-19T00:22:51;-2.30;99.90
64855;DHT22;51321;50.428;8.378;2022-12-19T00:25:13;-2.30;99.90
64855;DHT22;51321;50.428;8.378;2022-12-19T00:27:36;-2.30;99.90
64855;DHT22;51321;50.428;8.378;2022-12-19T00:29:58;-2.20;99.90
64855;DHT22;51321;50.428;8.378;2022-12-19T00:32:22;-2.10;99.90
64855;DHT22;51321;50.428;8.378;2022-12-19T00:34:44;-2.10;99.90
64855;DHT22;51321;50.428;8.378;2022-12-19T00:37:08;-2.10;99.90
64855;DHT22;51321;50.428;8.378;2022-12-19T00:39:31;-2.10;99.90
64855;DHT22;51321;50.428;8.378;2022-12-19T00:41:53;-2.10;99.90
64855;DHT22;51321;50.428;8.378;2022-12-19T00:44:16;-2.10;99.90
64855;DHT22;51321;50.428;8.378;2022-12-19T00:46:40;-2.10;99.90
64855;DHT22;51321;50.428;8.378;2022-12-19T00:49:02;-2.20;99.90
64855;DHT22;51321;50.428;8.378;2022-12-19T00:51:27;-2.20;99.90
64855;DHT22;51321;50.428;8.378;2022-12-19T00:53:53;-2.20;99.90
64855;DHT22;51321;50.428;8.378;2022-12-19T00:56:18;-2.20;99.90
64855;DHT22;51321;50.428;8.378;2022-12-19T00:58:42;-2.20;99.90
64855;DHT22;51321;50.428;8.378;2022-12-19T01:01:05;-2.10;99.90
64855;DHT22;51321;50.428;8.378;2022-12-19T01:03:29;-2.20;99.90
64855;DHT22;51321;50.428;8.378;2022-12-19T01:05:51;-2.00;99.90
64855;DHT22;51321;50.428;8.378;2022-12-19T01:08:14;-2.00;99.90
64855;DHT22;51321;50.428;8.378;2022-12-19T01:10:44;-1.90;99.90
64855;DHT22;51321;50.428;8.378;2022-12-19T01:13:06;-1.90;99.90
64855;DHT22;51321;50.428;8.378;2022-12-19T01:15:28;-1.80;99.90
64855;DHT22;51321;50.428;8.378;2022-12-19T01:17:50;-1.80;99.90
64855;DHT22;51321;50.428;8.378;2022-12-19T01:20:14;-1.80;99.90
64855;DHT22;51321;50.428;8.378;2022-12-19T01:22:37;-1.80;99.90
64855;DHT22;51321;50.428;8.378;2022-12-19T01:25:00;-1.80;99.90
64855;DHT22;51321;50.428;8.378;2022-12-19T01:27:24;-1.70;99.90
64855;DHT22;51321;50.428;8.378;2022-12-19T01:29:46;-1.70;99.90
64855;DHT22;51321;50.428;8.378;2022-12-19T01:32:10;-1.60;99.90
64855;DHT22;51321;50.428;8.378;2022-12-19T01:34:34;-1.60;99.90
64855;DHT22;51321;50.428;8.378;2022-12-19T01:36:56;-1.50;99.90
64855;DHT22;51321;50.428;8.378;2022-12-19T01:39:18;-1.50;99.90
64855;DHT22;51321;50.428;8.378;2022-12-19T01:41:41;-1.30;99.90
64855;DHT22;51321;50.428;8.378;2022-12-19T01:44:07;-1.30;99.90
64855;DHT22;51321;50.428;8.378;2022-12-19T01:46:32;-1.40;99.90
64855;DHT22;51321;50.428;8.378;2022-12-19T01:48:55;-1.40;99.90
64855;DHT22;51321;50.428;8.378;2022-12-19T01:51:21;-1.30;99.90
64855;DHT22;51321;50.428;8.378;2022-12-19T01:53:48;-1.30;99.90
64855;DHT22;51321;50.428;8.378;2022-12-19T01:56:11;-1.20;99.90
64855;DHT22;51321;50.428;8.378;2022-12-19T01:58:35;-1.20;99.90
64855;DHT22;51321;50.428;8.378;2022-12-19T02:01:00;-1.10;99.90
64855;DHT22;51321;50.428;8.378;2022-12-19T02:03:26;-1.10;99.90
64855;DHT22;51321;50.428;8.378;2022-12-19T02:05:49;-1.00;99.90
64855;DHT22;51321;50.428;8.378;2022-12-19T02:08:13;-1.10;99.90
64855;DHT22;51321;50.428;8.378;2022-12-19T02:10:36;-1.10;99.90
64855;DHT22;51321;50.428;8.378;2022-12-19T02:12:59;-1.10;99.90
64855;DHT22;51321;50.428;8.378;2022-12-19T02:15:21;-1.10;99.90
64855;DHT22;51321;50.428;8.378;2022-12-19T02:17:56;-1.00;99.90
64855;DHT22;51321;50.428;8.378;2022-12-19T02:20:55;-1.00;99.90
64855;DHT22;51321;50.428;8.378;2022-12-19T02:23:53;-1.10;99.90
64855;DHT22;51321;50.428;8.378;2022-12-19T02:26:33;-1.00;99.90
64855;DHT22;51321;50.428;8.378;2022-12-19T02:31:47;-1.00;99.90
64855;DHT22;51321;50.428;8.378;2022-12-19T02:34:18;-1.00;99.90
64855;DHT22;51321;50.428;8.378;2022-12-19T02:36:52;-1.10;99.90
64855;DHT22;51321;50.428;8.378;2022-12-19T02:39:19;-1.10;99.90
64855;DHT22;51321;50.428;8.378;2022-12-19T02:41:49;-1.10;99.90
64855;DHT22;51321;50.428;8.378;2022-12-19T02:44:22;-1.10;99.90
64855;DHT22;51321;50.428;8.378;2022-12-19T02:46:48;-1.00;99.90
64855;DHT22;51321;50.428;8.378;2022-12-19T02:49:12;-1.00;99.90
64855;DHT22;51321;50.428;8.378;2022-12-19T02:51:35;-1.00;99.90
64855;DHT22;51321;50.428;8.378;2022-12-19T02:53:58;-1.00;99.90
64855;DHT22;51321;50.428;8.378;2022-12-19T02:56:24;-1.00;99.90
64855;DHT22;51321;50.428;8.378;2022-12-19T02:59:00;-1.00;99.90
64855;DHT22;51321;50.428;8.378;2022-12-19T03:01:36;-1.00;99.90
64855;DHT22;51321;50.428;8.378;2022-12-19T03:04:13;-1.00;99.90
64855;DHT22;51321;50.428;8.378;2022-12-19T03:06:40;-1.10;99.90
64855;DHT22;51321;50.428;8.378;2022-12-19T03:09:08;-1.10;99.90
64855;DHT22;51321;50.428;8.378;2022-12-19T03:11:38;-1.00;99.90
64855;DHT22;51321;50.428;8.378;2022-12-19T03:14:04;-1.00;99.90
64855;DHT22;51321;50.428;8.378;2022-12-19T03:16:27;-1.00;99.90
64855;DHT22;51321;50.428;8.378;2022-12-19T03:18:50;-1.00;99.90
64855;DHT22;51321;50.428;8.378;2022-12-19T03:21:22;-1.00;99.90
64855;DHT22;51321;50.428;8.378;2022-12-19T03:23:46;-0.90;99.90
64855;DHT22;51321;50.428;8.378;2022-12-19T03:26:11;-0.90;99.90
64855;DHT22;51321;50.428;8.378;2022-12-19T03:28:40;-0.80;99.90
64855;DHT22;51321;50.428;8.378;2022-12-19T03:31:03;-0.90;99.90
64855;DHT22;51321;50.428;8.378;2022-12-19T03:33:28;-1.00;99.90
64855;DHT22;51321;50.428;8.378;2022-12-19T03:35:53;-1.00;99.90
64855;DHT22;51321;50.428;8.378;2022-12-19T03:38:19;-1.00;99.90
64855;DHT22;51321;50.428;8.378;2022-12-19T03:40:43;-1.00;99.90
64855;DHT22;51321;50.428;8.378;2022-12-19T03:43:08;-1.00;99.90
64855;DHT22;51321;50.428;8.378;2022-12-19T03:45:34;-1.10;99.90
64855;DHT22;51321;50.428;8.378;2022-12-19T03:48:04;-1.10;99.90
64855;DHT22;51321;50.428;8.378;2022-12-19T03:50:33;-1.00;99.90
64855;DHT22;51321;50.428;8.378;2022-12-19T03:53:05;-1.00;99.90
64855;DHT22;51321;50.428;8.378;2022-12-19T03:55:37;-1.00;99.90
64855;DHT22;51321;50.428;8.378;2022-12-19T03:58:06;-1.00;99.90
64855;DHT22;51321;50.428;8.378;2022-12-19T04:00:32;-1.00;99.90
64855;DHT22;51321;50.428;8.378;2022-12-19T04:02:56;-1.00;99.90
64855;DHT22;51321;50.428;8.378;2022-12-19T04:05:21;-0.90;99.90
64855;DHT22;51321;50.428;8.378;2022-12-19T04:07:44;-0.80;99.90
64855;DHT22;51321;50.428;8.378;2022-12-19T04:10:11;-0.80;99.90
64855;DHT22;51321;50.428;8.378;2022-12-19T04:12:39;-0.80;99.90
64855;DHT22;51321;50.428;8.378;2022-12-19T04:15:03;-0.90;99.90
64855;DHT22;51321;50.428;8.378;2022-12-19T04:17:30;-0.90;99.90
64855;DHT22;51321;50.428;8.378;2022-12-19T04:19:59;-0.80;99.90
64855;DHT22;51321;50.428;8.378;2022-12-19T04:22:28;-0.80;99.90
64855;DHT22;51321;50.428;8.378;2022-12-19T04:24:52;-0.80;99.90
64855;DHT22;51321;50.428;8.378;2022-12-19T04:27:16;-0.70;99.90
64855;DHT22;51321;50.428;8.378;2022-12-19T04:29:41;-0.70;99.90
64855;DHT22;51321;50.428;8.378;2022-12-19T04:32:05;-0.70;99.90
64855;DHT22;51321;50.428;8.378;2022-12-19T04:34:28;-0.70;99.90
64855;DHT22;51321;50.428;8.378;2022-12-19T04:36:50;-0.70;99.90
64855;DHT22;51321;50.428;8.378;2022-12-19T04:39:13;-0.70;99.90
64855;DHT22;51321;50.428;8.378;2022-12-19T04:41:38;-0.70;99.90
64855;DHT22;51321;50.428;8.378;2022-12-19T04:44:00;-0.70;99.90
64855;DHT22;51321;50.428;8.378;2022-12-19T04:46:24;-0.70;99.90
64855;DHT22;51321;50.428;8.378;2022-12-19T04:48:46;-0.70;99.90
64855;DHT22;51321;50.428;8.378;2022-12-19T04:51:09;-0.70;99.90
64855;DHT22;51321;50.428;8.378;2022-12-19T04:53:31;-0.70;99.90
64855;DHT22;51321;50.428;8.378;2022-12-19T04:55:59;-0.70;99.90
64855;DHT22;51321;50.428;8.378;2022-12-19T04:58:21;-0.70;99.90
64855;DHT22;51321;50.428;8.378;2022-12-19T05:00:44;-0.70;99.90
64855;DHT22;51321;50.428;8.378;2022-12-19T05:03:08;-0.70;99.90
64855;DHT22;51321;50.428;8.378;2022-12-19T05:05:30;-0.70;99.90
64855;DHT22;51321;50.428;8.378;2022-12-19T05:07:52;-0.70;99.90
64855;DHT22;51321;50.428;8.378;2022-12-19T05:10:16;-0.70;99.90
64855;DHT22;51321;50.428;8.378;2022-12-19T05:12:39;-0.60;99.90
64855;DHT22;51321;50.428;8.378;2022-12-19T05:15:01;-0.60;99.90
64855;DHT22;51321;50.428;8.378;2022-12-19T05:17:24;-0.60;99.90
64855;DHT22;51321;50.428;8.378;2022-12-19T05:19:50;-0.60;99.90
64855;DHT22;51321;50.428;8.378;2022-12-19T05:22:12;-0.60;99.90
64855;DHT22;51321;50.428;8.378;2022-12-19T05:24:35;-0.60;99.90
64855;DHT22;51321;50.428;8.378;2022-12-19T05:26:58;-0.60;99.90
64855;DHT22;51321;50.428;8.378;2022-12-19T05:29:21;-0.60;99.90
64855;DHT22;51321;50.428;8.378;2022-12-19T05:31:44;-0.50;99.90
64855;DHT22;51321;50.428;8.378;2022-12-19T05:34:06;-0.50;99.90
64855;DHT22;51321;50.428;8.378;2022-12-19T05:36:30;-0.50;99.90
64855;DHT22;51321;50.428;8.378;2022-12-19T05:38:52;-0.50;99.90
64855;DHT22;51321;50.428;8.378;2022-12-19T05:41:15;-0.60;99.90
64855;DHT22;51321;50.428;8.378;2022-12-19T05:43:38;-0.50;99.90
64855;DHT22;51321;50.428;8.378;2022-12-19T05:46:00;-0.50;99.90
64855;DHT22;51321;50.428;8.378;2022-12-19T05:48:23;-0.50;99.90
64855;DHT22;51321;50.428;8.378;2022-12-19T05:50:48;-0.50;99.90
64855;DHT22;51321;50.428;8.378;2022-12-19T05:53:12;-0.50;99.90
64855;DHT22;51321;50.428;8.378;2022-12-19T05:55:35;-0.50;99.90
64855;DHT22;51321;50.428;8.378;2022-12-19T05:57:57;-0.50;99.90
64855;DHT22;51321;50.428;8.378;2022-12-19T06:00:19;-0.50;99.90
64855;DHT22;51321;50.428;8.378;2022-12-19T06:02:42;-0.40;99.90
64855;DHT22;51321;50.428;8.378;2022-12-19T06:05:05;-0.40;99.90
64855;DHT22;51321;50.428;8.378;2022-12-19T06:07:28;-0.40;99.90
64855;DHT22;51321;50.428;8.378;2022-12-19T06:09:52;-0.40;99.90
64855;DHT22;51321;50.428;8.378;2022-12-19T06:12:14;-0.40;99.90
64855;DHT22;51321;50.428;8.378;2022-12-19T06:14:37;-0.40;99.90
64855;DHT22;51321;50.428;8.378;2022-12-19T06:16:59;-0.40;99.90
64855;DHT22;51321;50.428;8.378;2022-12-19T06:19:22;-0.40;99.90
64855;DHT22;51321;50.428;8.378;2022-12-19T06:21:46;-0.30;99.90
64855;DHT22;51321;50.428;8.378;2022-12-19T06:24:08;-0.40;99.90
64855;DHT22;51321;50.428;8.378;2022-12-19T06:26:32;-0.30;99.90
64855;DHT22;51321;50.428;8.378;2022-12-19T06:29:02;-0.40;99.90
64855;DHT22;51321;50.428;8.378;2022-12-19T06:31:24;-0.40;99.90
64855;DHT22;51321;50.428;8.378;2022-12-19T06:33:46;-0.30;99.90
64855;DHT22;51321;50.428;8.378;2022-12-19T06:36:11;-0.30;99.90
64855;DHT22;51321;50.428;8.378;2022-12-19T06:38:34;-0.30;99.90
64855;DHT22;51321;50.428;8.378;2022-12-19T06:40:57;-0.30;99.90
64855;DHT22;51321;50.428;8.378;2022-12-19T06:43:39;-0.30;99.90
64855;DHT22;51321;50.428;8.378;2022-12-19T06:46:02;-0.30;99.90
64855;DHT22;51321;50.428;8.378;2022-12-19T06:48:27;-0.30;99.90
64855;DHT22;51321;50.428;8.378;2022-12-19T06:50:49;-0.30;99.90
64855;DHT22;51321;50.428;8.378;2022-12-19T06:53:11;-0.30;99.90
64855;DHT22;51321;50.428;8.378;2022-12-19T06:55:35;-0.30;99.90
64855;DHT22;51321;50.428;8.378;2022-12-19T06:57:57;-0.30;99.90
64855;DHT22;51321;50.428;8.378;2022-12-19T07:00:21;-0.20;99.90
64855;DHT22;51321;50.428;8.378;2022-12-19T07:02:48;-0.20;99.90
64855;DHT22;51321;50.428;8.378;2022-12-19T07:05:12;-0.10;99.90
64855;DHT22;51321;50.428;8.378;2022-12-19T07:07:35;-0.10;99.90
64855;DHT22;51321;50.428;8.378;2022-12-19T07:09:58;-0.10;99.90
64855;DHT22;51321;50.428;8.378;2022-12-19T07:12:21;0.00;99.90
64855;DHT22;51321;50.428;8.378;2022-12-19T07:14:44;-0.10;99.90
64855;DHT22;51321;50.428;8.378;2022-12-19T07:17:08;-0.10;99.90
64855;DHT22;51321;50.428;8.378;2022-12-19T07:19:34;-0.10;99.90
64855;DHT22;51321;50.428;8.378;2022-12-19T07:21:56;0.00;99.90
64855;DHT22;51321;50.428;8.378;2022-12-19T07:24:21;0.00;99.90
64855;DHT22;51321;50.428;8.378;2022-12-19T07:26:44;0.00;99.90
64855;DHT22;51321;50.428;8.378;2022-12-19T07:29:07;0.10;99.90
64855;DHT22;51321;50.428;8.378;2022-12-19T07:31:30;0.10;99.90
64855;DHT22;51321;50.428;8.378;2022-12-19T07:33:54;0.10;99.90
64855;DHT22;51321;50.428;8.378;2022-12-19T07:36:17;0.20;99.90
64855;DHT22;51321;50.428;8.378;2022-12-19T07:38:40;0.20;99.90
64855;DHT22;51321;50.428;8.378;2022-12-19T07:41:04;0.20;99.90
64855;DHT22;51321;50.428;8.378;2022-12-19T07:43:26;0.20;99.90
64855;DHT22;51321;50.428;8.378;2022-12-19T07:45:53;0.20;99.90
64855;DHT22;51321;50.428;8.378;2022-12-19T07:48:15;0.20;99.90
64855;DHT22;51321;50.428;8.378;2022-12-19T07:50:40;0.30;99.90
64855;DHT22;51321;50.428;8.378;2022-12-19T07:53:04;0.30;99.90
64855;DHT22;51321;50.428;8.378;2022-12-19T07:55:26;0.30;99.90
64855;DHT22;51321;50.428;8.378;2022-12-19T07:57:48;0.30;99.90
64855;DHT22;51321;50.428;8.378;2022-12-19T08:00:11;0.30;99.90
64855;DHT22;51321;50.428;8.378;2022-12-19T08:02:34;0.30;99.90
64855;DHT22;51321;50.428;8.378;2022-12-19T08:04:56;0.40;99.90
64855;DHT22;51321;50.428;8.378;2022-12-19T08:07:22;0.40;99.90
64855;DHT22;51321;50.428;8.378;2022-12-19T08:09:45;0.40;99.90
64855;DHT22;51321;50.428;8.378;2022-12-19T08:12:07;0.40;99.90
64855;DHT22;51321;50.428;8.378;2022-12-19T08:14:30;0.40;99.90
64855;DHT22;51321;50.428;8.378;2022-12-19T08:16:53;0.50;99.90
64855;DHT22;51321;50.428;8.378;2022-12-19T08:19:15;0.60;99.90
64855;DHT22;51321;50.428;8.378;2022-12-19T08:21:38;0.70;99.90
64855;DHT22;51321;50.428;8.378;2022-12-19T08:24:02;0.60;99.90
64855;DHT22;51321;50.428;8.378;2022-12-19T08:26:24;0.60;99.90
64855;DHT22;51321;50.428;8.378;2022-12-19T08:28:48;0.70;99.90
64855;DHT22;51321;50.428;8.378;2022-12-19T08:31:13;0.70;99.90
64855;DHT22;51321;50.428;8.378;2022-12-19T08:33:36;0.70;99.90
64855;DHT22;51321;50.428;8.378;2022-12-19T08:36:02;0.70;99.90
64855;DHT22;51321;50.428;8.378;2022-12-19T08:38:25;0.70;99.90
64855;DHT22;51321;50.428;8.378;2022-12-19T08:40:52;0.70;99.90
64855;DHT22;51321;50.428;8.378;2022-12-19T08:43:15;0.80;99.90
64855;DHT22;51321;50.428;8.378;2022-12-19T08:45:38;0.80;99.90
64855;DHT22;51321;50.428;8.378;2022-12-19T08:48:02;0.80;99.90
64855;DHT22;51321;50.428;8.378;2022-12-19T08:50:24;0.80;99.90
64855;DHT22;51321;50.428;8.378;2022-12-19T08:52:47;0.90;99.90
64855;DHT22;51321;50.428;8.378;2022-12-19T08:55:10;0.90;99.90
64855;DHT22;51321;50.428;8.378;2022-12-19T08:57:34;0.90;99.90
64855;DHT22;51321;50.428;8.378;2022-12-19T08:59:58;0.90;99.90
64855;DHT22;51321;50.428;8.378;2022-12-19T09:02:20;0.90;99.90
64855;DHT22;51321;50.428;8.378;2022-12-19T09:04:44;0.90;99.90
64855;DHT22;51321;50.428;8.378;2022-12-19T09:07:06;1.00;99.90
64855;DHT22;51321;50.428;8.378;2022-12-19T09:09:30;1.00;99.90
64855;DHT22;51321;50.428;8.378;2022-12-19T09:11:52;1.00;99.90
64855;DHT22;51321;50.428;8.378;2022-12-19T09:14:16;1.10;99.90
64855;DHT22;51321;50.428;8.378;2022-12-19T09:16:39;1.10;99.90
64855;DHT22;51321;50.428;8.378;2022-12-19T09:19:02;1.10;99.90
64855;DHT22;51321;50.428;8.378;2022-12-19T09:21:27;1.10;99.90
64855;DHT22;51321;50.428;8.378;2022-12-19T09:23:52;1.10;99.90
64855;DHT22;51321;50.428;8.378;2022-12-19T09:26:15;1.10;99.90
64855;DHT22;51321;50.428;8.378;2022-12-19T09:28:39;1.20;99.90
64855;DHT22;51321;50.428;8.378;2022-12-19T09:31:05;1.20;99.90
64855;DHT22;51321;50.428;8.378;2022-12-19T09:33:30;1.20;99.90
64855;DHT22;51321;50.428;8.378;2022-12-19T09:35:54;1.20;99.90
64855;DHT22;51321;50.428;8.378;2022-12-19T09:38:19;1.30;99.90
64855;DHT22;51321;50.428;8.378;2022-12-19T09:40:53;1.30;99.90
64855;DHT22;51321;50.428;8.378;2022-12-19T09:43:32;1.20;99.90
64855;DHT22;51321;50.428;8.378;2022-12-19T09:46:06;1.20;99.90
64855;DHT22;51321;50.428;8.378;2022-12-19T09:48:30;1.20;99.90
64855;DHT22;51321;50.428;8.378;2022-12-19T09:50:57;1.40;99.90
64855;DHT22;51321;50.428;8.378;2022-12-19T09:53:23;1.40;99.90
64855;DHT22;51321;50.428;8.378;2022-12-19T09:55:51;1.40;99.90
64855;DHT22;51321;50.428;8.378;2022-12-19T09:58:26;1.40;99.90
64855;DHT22;51321;50.428;8.378;2022-12-19T10:00:54;1.40;99.90
64855;DHT22;51321;50.428;8.378;2022-12-19T10:03:23;1.40;99.90
64855;DHT22;51321;50.428;8.378;2022-12-19T10:05:49;1.40;99.90
64855;DHT22;51321;50.428;8.378;2022-12-19T10:08:16;1.40;99.90
64855;DHT22;51321;50.428;8.378;2022-12-19T10:10:47;1.30;99.90
64855;DHT22;51321;50.428;8.378;2022-12-19T10:13:23;1.30;99.90
64855;DHT22;51321;50.428;8.378;2022-12-19T10:15:54;1.30;99.90
64855;DHT22;51321;50.428;8.378;2022-12-19T10:18:40;1.30;99.90
64855;DHT22;51321;50.428;8.378;2022-12-19T10:21:06;1.30;99.90
64855;DHT22;51321;50.428;8.378;2022-12-19T10:24:06;1.40;99.90
64855;DHT22;51321;50.428;8.378;2022-12-19T10:26:37;1.40;99.90
64855;DHT22;51321;50.428;8.378;2022-12-19T10:29:17;1.50;99.90
64855;DHT22;51321;50.428;8.378;2022-12-19T10:31:48;1.50;99.90
64855;DHT22;51321;50.428;8.378;2022-12-19T10:34:19;1.50;99.90
64855;DHT22;51321;50.428;8.378;2022-12-19T10:36:44;1.50;99.90
64855;DHT22;51321;50.428;8.378;2022-12-19T10:39:15;1.50;99.90
64855;DHT22;51321;50.428;8.378;2022-12-19T10:41:48;1.50;99.90
64855;DHT22;51321;50.428;8.378;2022-12-19T10:44:13;1.50;99.90
64855;DHT22;51321;50.428;8.378;2022-12-19T10:46:38;1.50;99.90
64855;DHT22;51321;50.428;8.378;2022-12-19T10:49:05;1.50;99.90
64855;DHT22;51321;50.428;8.378;2022-12-19T10:51:31;1.50;99.90
64855;DHT22;51321;50.428;8.378;2022-12-19T10:53:57;1.50;99.90
64855;DHT22;51321;50.428;8.378;2022-12-19T10:56:23;1.50;99.90
64855;DHT22;51321;50.428;8.378;2022-12-19T10:58:50;1.50;99.90
64855;DHT22;51321;50.428;8.378;2022-12-19T11:01:23;1.40;99.90
64855;DHT22;51321;50.428;8.378;2022-12-19T11:03:51;1.40;99.90
64855;DHT22;51321;50.428;8.378;2022-12-19T11:06:40;1.40;99.90
64855;DHT22;51321;50.428;8.378;2022-12-19T11:09:17;1.40;99.90
64855;DHT22;51321;50.428;8.378;2022-12-19T11:11:40;1.40;99.90
64855;DHT22;51321;50.428;8.378;2022-12-19T11:14:18;1.60;99.90
64855;DHT22;51321;50.428;8.378;2022-12-19T11:16:44;1.50;99.90
64855;DHT22;51321;50.428;8.378;2022-12-19T11:19:18;1.60;99.90
64855;DHT22;51321;50.428;8.378;2022-12-19T11:21:43;1.50;99.90
64855;DHT22;51321;50.428;8.378;2022-12-19T11:24:11;1.50;99.90
64855;DHT22;51321;50.428;8.378;2022-12-19T11:26:40;1.50;99.90
64855;DHT22;51321;50.428;8.378;2022-12-19T11:29:15;1.60;99.90
64855;DHT22;51321;50.428;8.378;2022-12-19T11:31:39;1.50;99.90
64855;DHT22;51321;50.428;8.378;2022-12-19T11:34:05;1.50;99.90
64855;DHT22;51321;50.428;8.378;2022-12-19T11:36:33;1.40;99.90
64855;DHT22;51321;50.428;8.378;2022-12-19T11:38:59;1.40;99.90
64855;DHT22;51321;50.428;8.378;2022-12-19T11:41:29;1.40;99.90
64855;DHT22;51321;50.428;8.378;2022-12-19T11:43:57;1.40;99.90
64855;DHT22;51321;50.428;8.378;2022-12-19T11:46:33;1.50;99.90
64855;DHT22;51321;50.428;8.378;2022-12-19T11:49:03;1.50;99.90
64855;DHT22;51321;50.428;8.378;2022-12-19T11:51:32;1.40;99.90
64855;DHT22;51321;50.428;8.378;2022-12-19T11:54:08;1.40;99.90
64855;DHT22;51321;50.428;8.378;2022-12-19T11:56:34;1.40;99.90
64855;DHT22;51321;50.428;8.378;2022-12-19T11:59:01;1.40;99.90
64855;DHT22;51321;50.428;8.378;2022-12-19T12:01:41;1.40;99.90
64855;DHT22;51321;50.428;8.378;2022-12-19T12:06:59;1.40;99.90
64855;DHT22;51321;50.428;8.378;2022-12-19T12:09:31;1.40;99.90
64855;DHT22;51321;50.428;8.378;2022-12-19T12:12:03;1.50;99.90
64855;DHT22;51321;50.428;8.378;2022-12-19T12:14:31;1.50;99.90
64855;DHT22;51321;50.428;8.378;2022-12-19T12:17:27;1.50;99.90
64855;DHT22;51321;50.428;8.378;2022-12-19T12:20:06;1.50;99.90
64855;DHT22;51321;50.428;8.378;2022-12-19T12:22:43;1.50;99.90
64855;DHT22;51321;50.428;8.378;2022-12-19T12:25:21;1.50;99.90
64855;DHT22;51321;50.428;8.378;2022-12-19T12:27:52;1.50;99.90
64855;DHT22;51321;50.428;8.378;2022-12-19T12:30:21;1.60;99.90
64855;DHT22;51321;50.428;8.378;2022-12-19T12:33:04;1.60;99.90
64855;DHT22;51321;50.428;8.378;2022-12-19T12:35:33;1.50;99.90
64855;DHT22;51321;50.428;8.378;2022-12-19T12:38:08;1.50;99.90
64855;DHT22;51321;50.428;8.378;2022-12-19T12:40:52;1.40;99.90
64855;DHT22;51321;50.428;8.378;2022-12-19T12:43:27;1.40;99.90
64855;DHT22;51321;50.428;8.378;2022-12-19T12:45:56;1.40;99.90
64855;DHT22;51321;50.428;8.378;2022-12-19T12:48:20;1.40;99.90
64855;DHT22;51321;50.428;8.378;2022-12-19T12:50:44;1.40;99.90
64855;DHT22;51321;50.428;8.378;2022-12-19T12:53:09;1.40;99.90
64855;DHT22;51321;50.428;8.378;2022-12-19T12:55:36;1.50;99.90
64855;DHT22;51321;50.428;8.378;2022-12-19T12:58:04;1.50;99.90
64855;DHT22;51321;50.428;8.378;2022-12-19T13:00:29;1.50;99.90
64855;DHT22;51321;50.428;8.378;2022-12-19T13:03:01;1.50;99.90
64855;DHT22;51321;50.428;8.378;2022-12-19T13:05:50;1.40;99.90
64855;DHT22;51321;50.428;8.378;2022-12-19T13:08:44;1.50;99.90
64855;DHT22;51321;50.428;8.378;2022-12-19T13:11:11;1.50;99.90
64855;DHT22;51321;50.428;8.378;2022-12-19T13:13:56;1.50;99.90
64855;DHT22;51321;50.428;8.378;2022-12-19T13:16:51;1.50;99.90
64855;DHT22;51321;50.428;8.378;2022-12-19T13:19:15;1.60;99.90
64855;DHT22;51321;50.428;8.378;2022-12-19T13:22:16;1.70;99.90
64855;DHT22;51321;50.428;8.378;2022-12-19T13:24:39;1.70;99.90
64855;DHT22;51321;50.428;8.378;2022-12-19T13:27:02;1.70;99.90
64855;DHT22;51321;50.428;8.378;2022-12-19T13:29:55;1.70;99.90
64855;DHT22;51321;50.428;8.378;2022-12-19T13:32:24;1.70;99.90
64855;DHT22;51321;50.428;8.378;2022-12-19T13:34:52;1.80;99.90
64855;DHT22;51321;50.428;8.378;2022-12-19T13:37:27;1.80;99.90
64855;DHT22;51321;50.428;8.378;2022-12-19T13:40:00;1.70;99.90
64855;DHT22;51321;50.428;8.378;2022-12-19T13:42:24;1.70;99.90
64855;DHT22;51321;50.428;8.378;2022-12-19T13:45:12;1.70;99.90
64855;DHT22;51321;50.428;8.378;2022-12-19T13:47:38;1.70;99.90
64855;DHT22;51321;50.428;8.378;2022-12-19T13:50:05;1.70;99.90
64855;DHT22;51321;50.428;8.378;2022-12-19T13:52:29;1.70;99.90
64855;DHT22;51321;50.428;8.378;2022-12-19T13:54:56;1.70;99.90
64855;DHT22;51321;50.428;8.378;2022-12-19T13:57:25;1.70;99.90
64855;DHT22;51321;50.428;8.378;2022-12-19T13:59:48;1.70;99.90
64855;DHT22;51321;50.428;8.378;2022-12-19T14:02:17;1.70;99.90
64855;DHT22;51321;50.428;8.378;2022-12-19T14:04:45;1.60;99.90
64855;DHT22;51321;50.428;8.378;2022-12-19T14:07:26;1.80;99.90
64855;DHT22;51321;50.428;8.378;2022-12-19T14:09:51;1.80;99.90
64855;DHT22;51321;50.428;8.378;2022-12-19T14:12:19;1.80;99.90
64855;DHT22;51321;50.428;8.378;2022-12-19T14:14:59;1.80;99.90
64855;DHT22;51321;50.428;8.378;2022-12-19T14:17:38;1.80;99.90
64855;DHT22;51321;50.428;8.378;2022-12-19T14:20:11;1.70;99.90
64855;DHT22;51321;50.428;8.378;2022-12-19T14:22:41;1.70;99.90
64855;DHT22;51321;50.428;8.378;2022-12-19T14:25:08;1.60;99.90
64855;DHT22;51321;50.428;8.378;2022-12-19T14:27:36;1.60;99.90
64855;DHT22;51321;50.428;8.378;2022-12-19T14:29:59;1.60;99.90
64855;DHT22;51321;50.428;8.378;2022-12-19T14:32:23;1.60;99.90
64855;DHT22;51321;50.428;8.378;2022-12-19T14:34:49;1.70;99.90
64855;DHT22;51321;50.428;8.378;2022-12-19T14:37:27;1.70;99.90
64855;DHT22;51321;50.428;8.378;2022-12-19T14:39:50;1.60;99.90
64855;DHT22;51321;50.428;8.378;2022-12-19T14:42:14;1.50;99.90
64855;DHT22;51321;50.428;8.378;2022-12-19T14:47:44;1.60;99.90
64855;DHT22;51321;50.428;8.378;2022-12-19T14:50:32;1.50;99.90
64855;DHT22;51321;50.428;8.378;2022-12-19T14:54:16;1.50;99.90
64855;DHT22;51321;50.428;8.378;2022-12-19T14:56:43;1.60;99.90
64855;DHT22;51321;50.428;8.378;2022-12-19T14:59:27;1.50;99.90
64855;DHT22;51321;50.428;8.378;2022-12-19T15:01:51;1.40;99.90
64855;DHT22;51321;50.428;8.378;2022-12-19T15:04:16;1.40;99.90
64855;DHT22;51321;50.428;8.378;2022-12-19T15:06:47;1.30;99.90
64855;DHT22;51321;50.428;8.378;2022-12-19T15:09:14;1.40;99.90
64855;DHT22;51321;50.428;8.378;2022-12-19T15:11:42;1.40;99.90
64855;DHT22;51321;50.428;8.378;2022-12-19T15:14:23;1.40;99.90
64855;DHT22;51321;50.428;8.378;2022-12-19T15:16:48;1.30;99.90
64855;DHT22;51321;50.428;8.378;2022-12-19T15:19:22;1.20;99.90
64855;DHT22;51321;50.428;8.378;2022-12-19T15:21:45;1.10;99.90
64855;DHT22;51321;50.428;8.378;2022-12-19T15:24:09;1.00;99.90
64855;DHT22;51321;50.428;8.378;2022-12-19T15:26:34;0.90;99.90
64855;DHT22;51321;50.428;8.378;2022-12-19T15:28:59;0.90;99.90
64855;DHT22;51321;50.428;8.378;2022-12-19T15:31:27;0.80;99.90
64855;DHT22;51321;50.428;8.378;2022-12-19T15:33:52;0.80;99.90
64855;DHT22;51321;50.428;8.378;2022-12-19T15:36:15;0.90;99.90
64855;DHT22;51321;50.428;8.378;2022-12-19T15:38:39;0.90;99.90
64855;DHT22;51321;50.428;8.378;2022-12-19T15:41:02;0.90;99.90
64855;DHT22;51321;50.428;8.378;2022-12-19T15:43:25;0.90;99.90
64855;DHT22;51321;50.428;8.378;2022-12-19T15:45:49;0.90;99.90
64855;DHT22;51321;50.428;8.378;2022-12-19T15:48:14;0.90;99.90